createdAt,value
2019-05-17T00:01:48.565Z,12.40
2019-05-17T00:04:27.000Z,12.40
2019-05-17T00:07:06.601Z,12.40
2019-05-17T00:09:44.075Z,12.40
2019-05-17T00:12:21.464Z,12.40
2019-05-17T00:15:00.414Z,12.40
2019-05-17T00:17:38.240Z,12.40
2019-05-17T00:20:31.796Z,12.40
2019-05-17T00:23:09.400Z,12.40
2019-05-17T00:25:47.002Z,12.40
2019-05-17T00:28:26.900Z,12.50
2019-05-17T00:31:06.639Z,12.50
2019-05-17T00:33:43.790Z,12.50
2019-05-17T00:36:21.194Z,12.50
2019-05-17T00:38:58.462Z,12.50
2019-05-17T00:41:37.524Z,12.50
2019-05-17T00:44:16.813Z,12.50
2019-05-17T00:46:58.645Z,12.50
2019-05-17T00:49:34.314Z,12.50
2019-05-17T00:52:11.892Z,12.50
2019-05-17T00:54:49.134Z,12.50
2019-05-17T00:57:27.356Z,12.50
2019-05-17T01:00:08.576Z,12.50
2019-05-17T01:02:46.890Z,12.50
2019-05-17T01:05:24.318Z,12.50
2019-05-17T01:08:02.139Z,12.50
2019-05-17T01:10:39.701Z,12.50
2019-05-17T01:13:17.503Z,12.40
2019-05-17T01:15:56.620Z,12.40
2019-05-17T01:18:47.046Z,12.40
2019-05-17T01:21:26.188Z,12.40
2019-05-17T01:24:17.076Z,12.40
2019-05-17T01:26:53.691Z,12.40
2019-05-17T01:29:30.977Z,12.40
2019-05-17T01:32:08.325Z,12.40
2019-05-17T01:34:49.483Z,12.50
2019-05-17T01:37:27.693Z,12.50
2019-05-17T01:40:06.756Z,12.60
2019-05-17T01:42:46.574Z,12.60
2019-05-17T01:45:24.274Z,12.60
2019-05-17T01:48:01.672Z,12.60
2019-05-17T01:50:39.055Z,12.70
2019-05-17T01:53:16.706Z,12.70
2019-05-17T01:55:56.664Z,12.70
2019-05-17T01:58:33.437Z,12.70
2019-05-17T02:01:22.658Z,12.70
2019-05-17T02:03:59.953Z,12.70
2019-05-17T02:06:48.710Z,12.70
2019-05-17T02:09:41.597Z,12.80
2019-05-17T02:12:17.361Z,12.80
2019-05-17T02:14:57.377Z,12.80
2019-05-17T02:17:34.305Z,12.80
2019-05-17T02:20:11.996Z,12.80
2019-05-17T02:22:49.648Z,12.80
2019-05-17T02:25:28.494Z,12.80
2019-05-17T02:28:05.907Z,12.80
2019-05-17T02:30:55.388Z,12.80
2019-05-17T02:33:34.349Z,12.80
2019-05-17T02:36:14.116Z,12.80
2019-05-17T02:38:53.173Z,12.70
2019-05-17T02:41:33.075Z,12.70
2019-05-17T02:44:12.750Z,12.70
2019-05-17T02:46:49.465Z,12.70
2019-05-17T02:49:26.966Z,12.70
2019-05-17T02:52:04.416Z,12.70
2019-05-17T02:54:43.727Z,12.70
2019-05-17T02:57:34.701Z,12.70
2019-05-17T03:00:13.377Z,12.70
2019-05-17T03:02:53.659Z,12.70
2019-05-17T03:05:33.410Z,12.70
2019-05-17T03:08:08.703Z,12.60
2019-05-17T03:10:46.495Z,12.60
2019-05-17T03:13:24.362Z,12.60
2019-05-17T03:16:03.430Z,12.70
2019-05-17T03:18:43.765Z,12.70
2019-05-17T03:21:22.908Z,12.60
2019-05-17T03:24:02.907Z,12.60
2019-05-17T03:26:42.708Z,12.60
2019-05-17T03:29:19.085Z,12.60
2019-05-17T03:32:00.602Z,12.60
2019-05-17T03:34:44.932Z,12.70
2019-05-17T03:37:25.847Z,12.70
2019-05-17T03:40:04.615Z,12.70
2019-05-17T03:42:39.283Z,12.70
2019-05-17T03:45:16.887Z,12.70
2019-05-17T03:47:55.115Z,12.80
2019-05-17T03:50:33.710Z,12.80
2019-05-17T03:53:13.164Z,12.90
2019-05-17T03:55:53.765Z,12.90
2019-05-17T03:58:33.005Z,12.90
2019-05-17T04:01:08.820Z,12.90
2019-05-17T04:03:48.097Z,12.90
2019-05-17T04:06:27.360Z,12.90
2019-05-17T04:09:06.865Z,12.90
2019-05-17T04:11:55.569Z,12.90
2019-05-17T04:14:33.557Z,12.90
2019-05-17T04:17:13.152Z,12.80
2019-05-17T04:19:53.170Z,12.80
2019-05-17T04:22:29.401Z,12.80
2019-05-17T04:25:13.092Z,12.80
2019-05-17T04:27:48.887Z,12.80
2019-05-17T04:30:26.377Z,12.70
2019-05-17T04:33:04.308Z,12.70
2019-05-17T04:35:43.191Z,12.70
2019-05-17T04:38:23.631Z,12.70
2019-05-17T04:41:03.250Z,12.70
2019-05-17T04:43:42.261Z,12.70
2019-05-17T04:46:18.582Z,12.70
2019-05-17T04:48:56.461Z,12.70
2019-05-17T04:51:34.477Z,12.70
2019-05-17T04:54:13.653Z,12.70
2019-05-17T04:56:53.218Z,12.70
2019-05-17T04:59:33.715Z,12.70
2019-05-17T05:02:12.933Z,12.70
2019-05-17T05:04:48.985Z,12.70
2019-05-17T05:07:26.845Z,12.70
2019-05-17T05:10:04.553Z,12.70
2019-05-17T05:12:44.438Z,12.70
2019-05-17T05:15:43.363Z,12.70
2019-05-17T05:18:22.147Z,12.70
2019-05-17T05:20:59.638Z,12.70
2019-05-17T05:23:37.055Z,12.60
2019-05-17T05:26:14.263Z,12.60
2019-05-17T05:28:52.913Z,12.60
2019-05-17T05:31:32.131Z,12.60
2019-05-17T05:34:12.173Z,12.60
2019-05-17T05:36:49.174Z,12.50
2019-05-17T05:39:26.490Z,12.50
2019-05-17T05:42:07.904Z,12.50
2019-05-17T05:44:43.017Z,12.50
2019-05-17T05:47:22.066Z,12.50
2019-05-17T05:50:01.654Z,12.50
2019-05-17T05:52:42.173Z,12.40
2019-05-17T05:55:23.160Z,12.40
2019-05-17T05:57:59.656Z,12.40
2019-05-17T06:00:37.066Z,12.40
2019-05-17T06:03:15.964Z,12.40
2019-05-17T06:05:53.418Z,12.40
2019-05-17T06:08:32.292Z,12.40
2019-05-17T06:11:12.296Z,12.40
2019-05-17T06:13:52.394Z,12.40
2019-05-17T06:16:31.961Z,12.40
2019-05-17T06:19:08.800Z,12.40
2019-05-17T06:21:46.113Z,12.40
2019-05-17T06:24:24.171Z,12.40
2019-05-17T06:27:02.030Z,12.40
2019-05-17T06:29:41.481Z,12.40
2019-05-17T06:32:18.365Z,12.50
2019-05-17T06:34:55.718Z,12.50
2019-05-17T06:37:32.915Z,12.50
2019-05-17T06:40:12.695Z,12.50
2019-05-17T06:42:49.498Z,12.50
2019-05-17T06:45:27.021Z,12.50
2019-05-17T06:48:05.425Z,12.60
2019-05-17T06:50:43.314Z,12.60
2019-05-17T06:53:21.935Z,12.60
2019-05-17T06:56:02.659Z,12.70
2019-05-17T06:58:39.577Z,12.70
2019-05-17T07:01:16.926Z,12.70
2019-05-17T07:03:54.533Z,12.70
2019-05-17T07:06:33.590Z,12.70
2019-05-17T07:09:11.201Z,12.70
2019-05-17T07:11:48.439Z,12.70
2019-05-17T07:14:26.237Z,12.80
2019-05-17T07:17:03.545Z,12.80
2019-05-17T07:19:40.749Z,12.80
2019-05-17T07:22:21.011Z,12.70
2019-05-17T07:24:59.774Z,12.70
2019-05-17T07:27:41.724Z,12.70
2019-05-17T07:30:19.531Z,12.60
2019-05-17T07:32:56.282Z,12.60
2019-05-17T07:35:33.260Z,12.60
2019-05-17T07:38:10.923Z,12.70
2019-05-17T07:40:50.200Z,12.70
2019-05-17T07:43:29.892Z,12.70
2019-05-17T07:46:09.615Z,12.70
2019-05-17T07:48:49.620Z,12.70
2019-05-17T07:51:26.900Z,12.60
2019-05-17T07:54:04.167Z,12.70
2019-05-17T07:56:41.542Z,12.70
2019-05-17T07:59:19.985Z,12.70
2019-05-17T08:02:10.630Z,12.70
2019-05-17T08:04:50.045Z,12.70
2019-05-17T08:07:26.907Z,12.70
2019-05-17T08:10:05.272Z,12.80
2019-05-17T08:12:42.529Z,12.80
2019-05-17T08:15:20.089Z,12.90
2019-05-17T08:17:59.357Z,13.00
2019-05-17T08:20:36.420Z,13.00
2019-05-17T08:23:13.611Z,13.00
2019-05-17T08:25:55.676Z,13.10
2019-05-17T08:28:31.336Z,13.10
2019-05-17T08:31:09.884Z,13.10
2019-05-17T08:33:49.669Z,13.20
2019-05-17T08:36:26.330Z,13.20
2019-05-17T08:39:04.055Z,13.20
2019-05-17T08:41:41.904Z,13.30
2019-05-17T08:44:19.310Z,13.30
2019-05-17T08:46:56.769Z,13.30
2019-05-17T08:49:34.525Z,13.30
2019-05-17T08:52:12.357Z,13.40
2019-05-17T08:54:49.781Z,13.40
2019-05-17T08:57:30.055Z,13.40
2019-05-17T09:00:10.149Z,13.40
2019-05-17T09:02:46.517Z,13.40
2019-05-17T09:05:25.901Z,13.40
2019-05-17T09:08:03.240Z,13.50
2019-05-17T09:10:41.211Z,13.40
2019-05-17T09:13:19.546Z,13.40
2019-05-17T09:16:00.028Z,13.50
2019-05-17T09:18:39.283Z,13.40
2019-05-17T09:21:15.988Z,13.50
2019-05-17T09:23:54.366Z,13.50
2019-05-17T09:26:32.137Z,13.50
2019-05-17T09:29:10.801Z,13.60
2019-05-17T09:31:50.456Z,13.60
2019-05-17T09:34:29.959Z,13.70
2019-05-17T09:37:09.707Z,13.70
2019-05-17T09:39:46.280Z,13.70
2019-05-17T09:42:25.321Z,13.70
2019-05-17T09:45:02.628Z,13.80
2019-05-17T09:47:40.070Z,13.90
2019-05-17T09:50:17.222Z,14.00
2019-05-17T09:52:54.718Z,14.10
2019-05-17T09:55:32.314Z,14.10
2019-05-17T09:58:10.162Z,14.10
2019-05-17T10:00:49.533Z,14.20
2019-05-17T10:03:27.043Z,14.20
2019-05-17T10:06:04.753Z,14.40
2019-05-17T10:08:44.597Z,14.60
2019-05-17T10:11:21.705Z,14.80
2019-05-17T10:14:01.328Z,14.90
2019-05-17T10:16:38.173Z,15.00
2019-05-17T10:19:15.665Z,15.00
2019-05-17T10:21:52.751Z,15.00
2019-05-17T10:24:38.092Z,14.90
2019-05-17T10:27:22.104Z,14.90
2019-05-17T10:29:59.474Z,14.80
2019-05-17T10:32:40.461Z,14.70
2019-05-17T10:35:16.378Z,14.70
2019-05-17T10:37:53.657Z,14.80
2019-05-17T10:40:31.182Z,14.80
2019-05-17T10:43:10.100Z,15.00
2019-05-17T10:45:47.832Z,15.10
2019-05-17T10:48:25.548Z,15.10
2019-05-17T10:51:03.077Z,15.10
2019-05-17T10:53:42.298Z,15.20
2019-05-17T10:56:22.969Z,15.30
2019-05-17T10:59:00.132Z,15.30
2019-05-17T11:01:38.036Z,15.20
2019-05-17T11:04:15.903Z,15.30
2019-05-17T11:06:53.242Z,15.30
2019-05-17T11:09:31.269Z,15.30
2019-05-17T11:12:08.906Z,15.20
2019-05-17T11:14:55.809Z,15.00
2019-05-17T11:17:25.460Z,15.00
2019-05-17T11:20:03.527Z,15.20
2019-05-17T11:22:40.968Z,15.30
2019-05-17T11:25:19.537Z,15.40
2019-05-17T11:28:09.141Z,15.30
2019-05-17T11:30:46.614Z,15.30
2019-05-17T11:33:23.841Z,15.20
2019-05-17T11:36:01.648Z,15.20
2019-05-17T11:38:39.542Z,15.20
2019-05-17T11:41:21.436Z,15.10
2019-05-17T11:43:57.150Z,15.30
2019-05-17T11:46:36.439Z,15.50
2019-05-17T11:49:14.694Z,15.70
2019-05-17T11:51:51.979Z,15.70
2019-05-17T11:54:29.289Z,15.80
2019-05-17T11:57:08.558Z,15.90
2019-05-17T11:59:45.825Z,16.00
2019-05-17T12:02:35.399Z,16.10
2019-05-17T12:05:13.363Z,16.30
2019-05-17T12:07:50.840Z,16.20
2019-05-17T12:10:28.352Z,16.10
2019-05-17T12:13:06.029Z,16.00
2019-05-17T12:15:45.323Z,16.10
2019-05-17T12:18:22.406Z,16.10
2019-05-17T12:20:59.905Z,16.10
2019-05-17T12:23:37.801Z,16.40
2019-05-17T12:26:15.450Z,16.50
2019-05-17T12:28:52.770Z,16.80
2019-05-17T12:31:30.923Z,17.20
2019-05-17T12:34:20.415Z,17.40
2019-05-17T12:36:57.779Z,17.40
2019-05-17T12:39:35.292Z,17.90
2019-05-17T12:42:12.748Z,18.00
2019-05-17T12:44:50.510Z,18.00
2019-05-17T12:47:28.094Z,18.00
2019-05-17T12:50:05.877Z,18.20
2019-05-17T12:52:43.701Z,18.30
2019-05-17T12:55:21.112Z,18.20
2019-05-17T12:57:58.428Z,17.60
2019-05-17T13:00:35.779Z,17.20
2019-05-17T13:03:13.538Z,17.20
2019-05-17T13:05:50.888Z,17.50
2019-05-17T13:08:28.133Z,18.00
2019-05-17T13:11:05.526Z,18.20
2019-05-17T13:13:43.249Z,18.40
2019-05-17T13:16:20.631Z,18.10
2019-05-17T13:18:59.316Z,17.90
2019-05-17T13:21:37.451Z,18.00
2019-05-17T13:24:15.071Z,18.30
2019-05-17T13:26:52.520Z,18.80
2019-05-17T13:29:29.843Z,19.10
2019-05-17T13:32:07.255Z,19.20
2019-05-17T13:34:44.535Z,19.30
2019-05-17T13:37:22.039Z,19.50
2019-05-17T13:39:59.781Z,19.50
2019-05-17T13:42:37.116Z,19.50
2019-05-17T13:45:16.192Z,19.60
2019-05-17T13:47:53.473Z,19.80
2019-05-17T13:50:32.368Z,19.50
2019-05-17T13:53:10.010Z,19.10
2019-05-17T13:55:47.313Z,18.70
2019-05-17T13:58:27.225Z,18.80
2019-05-17T14:01:16.098Z,19.10
2019-05-17T14:03:53.955Z,19.20
2019-05-17T14:06:31.294Z,19.00
2019-05-17T14:09:08.528Z,18.70
2019-05-17T14:11:47.741Z,18.40
2019-05-17T14:14:24.907Z,18.30
2019-05-17T14:17:02.582Z,18.30
2019-05-17T14:19:40.160Z,18.60
2019-05-17T14:22:17.441Z,19.30
2019-05-17T14:24:54.630Z,19.50
2019-05-17T14:27:31.988Z,19.30
2019-05-17T14:30:10.932Z,19.20
2019-05-17T14:32:48.291Z,19.00
2019-05-17T14:35:25.463Z,18.90
2019-05-17T14:38:03.111Z,18.70
2019-05-17T14:41:04.886Z,18.70
2019-05-17T14:43:19.949Z,18.60
2019-05-17T14:45:57.583Z,18.50
2019-05-17T14:48:35.432Z,18.30
2019-05-17T14:51:12.876Z,18.20
2019-05-17T14:53:50.542Z,18.10
2019-05-17T14:56:29.129Z,17.60
2019-05-17T14:59:06.557Z,17.20
2019-05-17T15:01:43.884Z,17.00
2019-05-17T15:04:21.460Z,16.70
2019-05-17T15:07:00.045Z,16.50
2019-05-17T15:09:37.684Z,16.20
2019-05-17T15:12:27.859Z,15.80
2019-05-17T15:14:54.670Z,15.60
2019-05-17T15:17:35.157Z,15.40
2019-05-17T15:20:13.877Z,15.40
2019-05-17T15:22:51.314Z,15.30
2019-05-17T15:25:29.232Z,15.20
2019-05-17T15:28:07.587Z,15.10
2019-05-17T15:30:45.214Z,15.10
2019-05-17T15:33:22.639Z,15.00
2019-05-17T15:36:00.271Z,14.90
2019-05-17T15:38:38.135Z,14.80
2019-05-17T15:41:15.560Z,14.80
2019-05-17T15:43:53.247Z,14.70
2019-05-17T15:46:32.132Z,14.70
2019-05-17T15:49:10.761Z,14.60
2019-05-17T15:51:48.437Z,14.60
2019-05-17T15:54:25.884Z,14.60
2019-05-17T15:57:03.420Z,14.60
2019-05-17T15:59:40.807Z,14.60
2019-05-17T16:02:18.073Z,14.60
2019-05-17T16:04:55.516Z,14.60
2019-05-17T16:07:33.122Z,14.60
2019-05-17T16:10:12.769Z,14.60
2019-05-17T16:13:01.750Z,14.70
2019-05-17T16:15:29.464Z,14.60
2019-05-17T16:18:07.167Z,14.70
2019-05-17T16:20:44.510Z,14.80
2019-05-17T16:23:22.094Z,14.80
2019-05-17T16:25:59.692Z,14.80
2019-05-17T16:28:37.191Z,14.90
2019-05-17T16:31:14.995Z,14.90
2019-05-17T16:33:52.924Z,14.90
2019-05-17T16:36:31.938Z,14.90
2019-05-17T16:39:09.989Z,15.00
2019-05-17T16:41:47.214Z,15.00
2019-05-17T16:44:24.893Z,14.90
2019-05-17T16:47:02.389Z,14.90
2019-05-17T16:49:40.678Z,14.90
2019-05-17T16:52:18.414Z,14.90
2019-05-17T16:54:57.014Z,14.90
2019-05-17T16:57:38.327Z,14.90
2019-05-17T17:00:45.136Z,14.90
2019-05-17T17:03:22.585Z,14.90
2019-05-17T17:05:59.950Z,15.00
2019-05-17T17:08:37.873Z,15.00
2019-05-17T17:11:15.516Z,15.00
2019-05-17T17:13:52.971Z,15.10
2019-05-17T17:16:31.173Z,15.10
2019-05-17T17:19:09.078Z,15.00
2019-05-17T17:21:46.444Z,15.00
2019-05-17T17:24:23.913Z,15.00
2019-05-17T17:27:13.801Z,14.90
2019-05-17T17:29:51.099Z,14.80
2019-05-17T17:32:28.693Z,14.80
2019-05-17T17:35:07.090Z,14.80
2019-05-17T17:37:44.888Z,14.80
2019-05-17T17:40:23.878Z,14.70
2019-05-17T17:43:03.819Z,14.60
2019-05-17T17:45:42.160Z,14.60
2019-05-17T17:48:20.102Z,14.50
2019-05-17T17:50:58.194Z,14.40
2019-05-17T17:53:35.808Z,14.30
2019-05-17T17:56:13.839Z,14.30
2019-05-17T17:58:52.841Z,14.20
2019-05-17T18:01:31.510Z,14.20
2019-05-17T18:04:09.355Z,14.20
2019-05-17T18:06:47.125Z,14.20
2019-05-17T18:09:26.084Z,14.20
2019-05-17T18:12:04.311Z,14.20
2019-05-17T18:14:41.625Z,14.10
2019-05-17T18:17:19.819Z,14.10
2019-05-17T18:19:57.966Z,14.10
2019-05-17T18:22:35.418Z,14.10
2019-05-17T18:25:13.117Z,14.10
2019-05-17T18:27:50.902Z,14.10
2019-05-17T18:30:28.450Z,14.00
2019-05-17T18:33:06.467Z,14.10
2019-05-17T18:35:44.477Z,14.00
2019-05-17T18:38:25.618Z,13.90
2019-05-17T18:41:03.804Z,13.80
2019-05-17T18:43:41.623Z,13.70
2019-05-17T18:46:19.146Z,13.70
2019-05-17T18:48:57.343Z,13.60
2019-05-17T18:51:34.902Z,13.60
2019-05-17T18:54:14.585Z,13.60
2019-05-17T18:56:52.510Z,13.50
2019-05-17T18:59:30.373Z,13.50
2019-05-17T19:02:10.193Z,13.50
2019-05-17T19:04:48.065Z,13.50
2019-05-17T19:07:25.985Z,13.50
2019-05-17T19:10:04.259Z,13.50
2019-05-17T19:12:42.384Z,13.40
2019-05-17T19:15:20.317Z,13.40
2019-05-17T19:17:58.192Z,13.30
2019-05-17T19:20:36.131Z,13.30
2019-05-17T19:23:14.605Z,13.30
2019-05-17T19:25:52.451Z,13.30
2019-05-17T19:28:30.213Z,13.20
2019-05-17T19:31:09.271Z,13.30
2019-05-17T19:33:46.659Z,13.30
2019-05-17T19:36:24.109Z,13.40
2019-05-17T19:39:04.910Z,13.50
2019-05-17T19:41:44.835Z,13.60
2019-05-17T19:44:22.514Z,13.60
2019-05-17T19:46:59.960Z,13.60
2019-05-17T19:49:37.451Z,13.60
2019-05-17T19:52:15.013Z,13.60
2019-05-17T19:54:53.077Z,13.70
2019-05-17T19:57:30.965Z,13.80
2019-05-17T20:00:09.443Z,13.80
2019-05-17T20:02:47.530Z,13.80
2019-05-17T20:05:24.843Z,13.80
2019-05-17T20:08:02.754Z,13.80
2019-05-17T20:10:40.200Z,13.80
2019-05-17T20:13:17.612Z,13.80
2019-05-17T20:15:55.207Z,13.80
2019-05-17T20:18:33.044Z,13.80
2019-05-17T20:21:10.638Z,13.80
2019-05-17T20:23:48.208Z,13.80
2019-05-17T20:26:25.941Z,13.90
2019-05-17T20:29:03.809Z,13.90
2019-05-17T20:31:41.635Z,13.80
2019-05-17T20:34:19.513Z,13.70
2019-05-17T20:36:57.115Z,13.60
2019-05-17T20:39:35.378Z,13.50
2019-05-17T20:42:13.356Z,13.30
2019-05-17T20:44:51.023Z,13.30
2019-05-17T20:47:28.637Z,13.10
2019-05-17T20:50:07.571Z,13.10
2019-05-17T20:52:45.685Z,13.10
2019-05-17T20:55:23.154Z,13.00
2019-05-17T20:58:00.763Z,13.00
2019-05-17T21:00:38.595Z,13.00
2019-05-17T21:03:17.647Z,13.00
2019-05-17T21:05:56.579Z,13.00
2019-05-17T21:08:45.793Z,12.90
2019-05-17T21:11:26.685Z,12.90
2019-05-17T21:14:04.545Z,12.80
2019-05-17T21:16:42.117Z,12.90
2019-05-17T21:19:20.124Z,13.00
2019-05-17T21:22:03.112Z,13.00
2019-05-17T21:24:40.882Z,13.00
2019-05-17T21:27:18.349Z,13.00
2019-05-17T21:29:56.268Z,13.00
2019-05-17T21:32:46.037Z,13.00
2019-05-17T21:35:24.025Z,13.00
2019-05-17T21:38:02.622Z,13.00
2019-05-17T21:40:39.952Z,13.00
2019-05-17T21:43:17.580Z,13.00
2019-05-17T21:46:04.086Z,13.10
2019-05-17T21:48:40.521Z,13.10
2019-05-17T21:51:18.641Z,13.00
2019-05-17T21:53:56.845Z,13.10
2019-05-17T21:56:36.404Z,13.10
2019-05-17T21:59:13.702Z,13.20
2019-05-17T22:01:52.366Z,13.20
2019-05-17T22:04:30.267Z,13.10
2019-05-17T22:07:08.347Z,13.00
2019-05-17T22:09:45.758Z,13.00
2019-05-17T22:12:23.044Z,13.00
2019-05-17T22:15:01.060Z,13.00
2019-05-17T22:17:39.362Z,13.00
2019-05-17T22:20:17.118Z,13.10
2019-05-17T22:22:58.074Z,13.10
2019-05-17T22:25:35.624Z,13.10
2019-05-17T22:28:12.942Z,13.00
2019-05-17T22:30:50.815Z,12.90
2019-05-17T22:33:28.787Z,12.90
2019-05-17T22:36:18.820Z,12.90
2019-05-17T22:38:56.519Z,13.00
2019-05-17T22:41:34.461Z,13.00
2019-05-17T22:44:11.964Z,13.00
2019-05-17T22:46:50.147Z,13.00
2019-05-17T22:49:39.885Z,13.00
2019-05-17T22:52:17.167Z,13.00
2019-05-17T22:54:54.793Z,13.00
2019-05-17T22:57:32.689Z,13.10
2019-05-17T23:00:10.885Z,13.10
2019-05-17T23:02:54.732Z,13.20
2019-05-17T23:05:44.357Z,13.20
2019-05-17T23:08:21.677Z,13.30
2019-05-17T23:10:59.523Z,13.40
2019-05-17T23:13:37.228Z,13.50
2019-05-17T23:16:17.798Z,13.60
2019-05-17T23:19:08.721Z,13.60
2019-05-17T23:21:47.815Z,13.60
2019-05-17T23:24:26.473Z,13.60
2019-05-17T23:27:04.200Z,13.70
2019-05-17T23:29:42.083Z,13.70
2019-05-17T23:32:19.876Z,13.70
2019-05-17T23:35:02.844Z,13.80
2019-05-17T23:37:40.851Z,13.70
2019-05-17T23:40:18.740Z,13.70
2019-05-17T23:42:57.613Z,13.80
2019-05-17T23:45:35.568Z,13.80
2019-05-17T23:48:13.265Z,13.80
2019-05-17T23:50:51.170Z,13.80
2019-05-17T23:53:29.234Z,13.80
2019-05-17T23:56:06.709Z,13.80
2019-05-17T23:58:44.418Z,13.80
